Nearby METAR Reports

 

KSJC - San Jose, California, USA
Distance from station: NE 9mi, 14km
Updated: Tue, 22-Aug-2017 12:53pm CDT
Few Clouds
Few Clouds
 Wind from calm
Wind: Calm
Temperature: 73°F , 23°C
Dew Point: 57°F , 14°C
Humidity: 57%
Barometer: 30.05 inHg , 1017.6 hPa
Clouds: Few Clouds
Visibility: 7 miles , 11 km
Cloud details: Few Clouds 2700 ft
2017/08/22 17:53 KSJC 221753Z 00000KT 7SM FEW027 23/14 A3005 RMK AO2 SLP174 T02280144 10233 20178 50001
KNUQ - Moffett Nas/Mtn, California, USA
Distance from station: N 9mi, 14km
Updated: Tue, 22-Aug-2017 12:56pm CDT
Clear
Clear
 Wind from N
Wind: N 6 mph , 9 km/h
Temperature: 72°F , 22°C
Dew Point: 61°F , 16°C
Humidity: 69%
Barometer: 30.06 inHg , 1017.9 hPa
Clouds: Clear
Visibility: 10 miles , 16 km
2017/08/22 17:56 KNUQ 221756Z AUTO 35005KT 10SM CLR 22/16 A3006 RMK AO2 SLP182 T02170156 10217 20178 51004
KPAO - Palo Alto, California, USA
Distance from station: NNW 14mi, 23km
Updated: Tue, 22-Aug-2017 11:47am CDT
NOT Current
Partly cloudy
Partly cloudy
 Wind from varies
Wind: varies 6 mph , 9 km/h
Temperature: 68°F , 20°C
Dew Point: 61°F , 16°C
Humidity: 78%
Barometer: 30.06 inHg , 1017.9 hPa
Clouds: Partly cloudy
Visibility: 10 miles , 16 km
Cloud details: Partly cloudy 1500 ft
2017/08/22 16:47 KPAO 221647Z VRB05KT 10SM SCT015 20/16 A3006
 
KRHV - San Jose/Reid, California, USA
Distance from station: ENE 12mi, 19km
Updated: Tue, 22-Aug-2017 12:50pm CDT
Clear
Clear
 Wind from varies
Wind: varies 6 mph , 9 km/h
Temperature: 75°F , 24°C
Dew Point: 57°F , 14°C
Humidity: 54%
Barometer: 30.07 inHg , 1018.3 hPa
Clouds: Clear
Visibility: 10 miles , 16 km
2017/08/22 17:50 KRHV 221750Z VRB05KT 10SM SKC 24/14 A3007
KOAK - Oakland, California, USA
Distance from station: NNW 31mi, 50km
Updated: Tue, 22-Aug-2017 12:53pm CDT
Few Clouds
Few Clouds
 Wind from WNW
Wind: WNW 7 mph , 11 km/h
Temperature: 64°F , 18°C
Dew Point: 57°F , 14°C
Humidity: 78%
Barometer: 30.06 inHg , 1017.9 hPa
Clouds: Few Clouds
Visibility: 9 miles , 14 km
Cloud details: Few Clouds 1300 ft
2017/08/22 17:53 KOAK 221753Z 30006KT 9SM FEW013 18/14 A3006 RMK AO2 SLP179 T01830144 10183 20161 50005
KSQL - San Carlos Airpo, California, USA
Distance from station: NW 21mi, 34km
Updated: Tue, 22-Aug-2017 12:50pm CDT
Haze, Few clouds
Haze, Few clouds
 Wind from NNE
Wind: NNE 9 mph , 15 km/h
Temperature: 66°F , 19°C
Dew Point: 59°F , 15°C
Humidity: 78%
Barometer: 30.06 inHg , 1017.9 hPa
Summary: Haze
Clouds: Few Clouds
Visibility: 7 miles , 11 km
Cloud details: Few Clouds 1600 ft
2017/08/22 17:50 KSQL 221750Z 03008KT 7SM HZ FEW016 19/15 A3006
 
KSFO - San Francisco, California, USA
Distance from station: NW 30mi, 49km
Updated: Tue, 22-Aug-2017 12:56pm CDT
Clear
Clear
 Wind from NW
Wind: NW 13 mph , 20 km/h
Temperature: 66°F , 19°C
Dew Point: 55°F , 13°C
Humidity: 68%
Barometer: 30.05 inHg , 1017.6 hPa
Clouds: Clear
Visibility: 10 miles , 16 km
2017/08/22 17:56 KSFO 221756Z 31011KT 10SM CLR 19/13 A3005 RMK AO2 SLP176 T01940133 10194 20161 50001
KE16 - San Martin, California, USA
Distance from station: ESE 27mi, 43km
Updated: Tue, 22-Aug-2017 1:15pm CDT
Clear
Clear
 Wind from N
Wind: N 5 mph , 7 km/h
Temperature: 75°F , 24°C
Dew Point: 55°F , 13°C
Humidity: 50%
Barometer: 30.06 inHg , 1017.9 hPa
Clouds: Clear
Visibility: 10 miles , 16 km
2017/08/22 18:15 KE16 221815Z AUTO 35004KT 10SM CLR 24/13 A3006 RMK AO2
KWVI - Watsonville, California, USA
Distance from station: SSE 27mi, 44km
Updated: Tue, 22-Aug-2017 12:53pm CDT
Clear
Clear
 Wind from SSE
Wind: SSE 5 mph , 7 km/h
Temperature: 72°F , 22°C
Dew Point: 59°F , 15°C
Humidity: 65%
Barometer: 30.06 inHg , 1017.9 hPa
Clouds: Clear
Visibility: 10 miles , 16 km
2017/08/22 17:53 KWVI 221753Z AUTO 15004KT 10SM CLR 22/15 A3006 RMK AO2 SLP178 T02170150 10217 20133 50001 TSNO
 
KHAF - Half Moon Bay, California, USA
Distance from station: WNW 31mi, 50km
Updated: Tue, 22-Aug-2017 1:15pm CDT
Overcast
Overcast
 Wind from W
Wind: W 7 mph , 11 km/h
Temperature: 64°F , 18°C
Dew Point: 57°F , 14°C
Humidity: 78%
Barometer: 30.05 inHg , 1017.6 hPa
Clouds: Overcast
Visibility: 9 miles , 14 km
Cloud details: Overcast 1300 ft
2017/08/22 18:15 KHAF 221815Z AUTO 28006KT 9SM OVC013 18/14 A3005 RMK AO2
KHWD - Hayward, California, USA
Distance from station: N 28mi, 44km
Updated: Tue, 22-Aug-2017 1:01pm CDT
Clear
Clear
 Wind from W
Wind: W 6 mph , 9 km/h
Temperature: 68°F , 20°C
Dew Point: 55°F , 13°C
Humidity: 64%
Barometer: 30.06 inHg , 1017.9 hPa
Clouds: Clear
Visibility: 10 miles , 16 km
2017/08/22 18:01 KHWD 221801Z 27005KT 10SM CLR 20/13 A3006 RMK AO2 T02000128
KLVK - Livermore, California, USA
Distance from station: NNE 31mi, 51km
Updated: Tue, 22-Aug-2017 12:53pm CDT
Clear
Clear
 Wind from NW
Wind: NW 5 mph , 7 km/h
Temperature: 73°F , 23°C
Dew Point: 55°F , 13°C
Humidity: 53%
Barometer: 30.04 inHg , 1017.3 hPa
Clouds: Clear
Visibility: 10 miles , 16 km
2017/08/22 17:53 KLVK 221753Z 32004KT 10SM CLR 23/13 A3004 RMK AO2 SLP170 T02330133 10233 20144 50002